ěÝzenÝ letovÚho provozu ╚eskÚ republiky
Letiste: LKTB Aktualizace: 28.03.2023 17:30:40  UTC
 METAR LKTB 28.03. 17:30 ...
METAR LKTB 281730Z 31011KT CAVOK 04/M10 Q1022 NOSIG=
 TAF LKTB 28.03. 17:00 ...
TAF LKTB 281700Z 2818/2918 32014KT CAVOK      BECMG 2818/2820 32004KT      BECMG 2914/2916 19006KT 9999 BKN030=